Flight Track Log - Related Links

Times and Time Zones

All times are in EDT time to prevent confusion due to time zone crossing. See the AAY825 flight status page for this flight to view local times or setup timezone preferences in your user account.

Time Position Orientation Groundspeed Altitude Reporting Facility
EDT Latitude Longitude Course Direction KTS MPH feet Rate Location/Type
Fri 11:40:40 AM 41.5319 -93.6364 131° Southeast 173 199 1,500  Level Minneapolis Center
Fri 11:40:58 AM 41.5214 -93.6200 111° Southeast 175 201 2,300 1,823 Climbing Minneapolis Center
Fri 11:41:59 AM 41.4747 -93.5572 135° Southeast 241 277 3,900 1,937 Climbing Minneapolis Center
Fri 11:43:05 AM 41.3981 -93.5194 160° South 263 303 6,400 2,344 Climbing Minneapolis Center
Fri 11:44:07 AM 41.3219 -93.4753 156° South 292 336 8,900 2,195 Climbing Minneapolis Center
Fri 11:45:08 AM 41.2539 -93.4192 148° Southeast 295 339 10,900 1,463 Climbing Minneapolis Center
Fri 11:46:10 AM 41.1867 -93.3267 134° Southeast 334 384 11,900 1,366 Climbing Minneapolis Center
Fri 11:47:11 AM 41.1069 -93.2206 135° Southeast 391 450 13,700 1,898 Climbing Minneapolis Center
Fri 11:47:48 AM 41.0556 -93.1558 136° Southeast 410 472 15,000 2,204 Climbing Chicago Center
Fri 11:48:49 AM 40.9711 -93.0500 137° Southeast 420 483 17,300 2,000 Climbing Chicago Center
Fri 11:49:51 AM 40.8650 -92.9150 136° Southeast 440 506 19,100 1,645 Climbing Chicago Center
Fri 11:50:53 AM 40.7761 -92.8003 136° Southeast 445 512 20,700 1,512 Climbing Chicago Center
Fri 11:51:54 AM 40.6819 -92.6822 136° Southeast 465 535 22,200 1,463 Climbing Chicago Center
Fri 11:52:56 AM 40.5867 -92.5631 136° Southeast 470 541 23,700 1,355 Climbing Chicago Center
Fri 11:53:58 AM 40.4881 -92.4403 137° Southeast 481 554 25,000 1,659 Climbing Chicago Center
Fri 11:54:59 AM 40.3897 -92.3183 137° Southeast 483 556 27,100 1,756 Climbing Chicago Center
Fri 11:56:01 AM 40.2861 -92.2150 143° Southeast 468 539 28,600 1,370 Climbing Chicago Center
Fri 11:56:31 AM 40.2228 -92.1561 145° Southeast 467 537 29,200 1,109 Climbing Kansas City Center
Fri 11:57:33 AM 40.1178 -92.0583 145° Southeast 467 537 30,300 878 Climbing Kansas City Center
Fri 11:58:34 AM 40.0136 -91.9603 144° Southeast 466 536 31,000 344 Climbing Kansas City Center
Fri 11:59:35 AM 39.9089 -91.8639 145° Southeast 465 535 31,000  Level Kansas City Center
Fri 12:00:36 PM 39.8050 -91.7675 145° Southeast 464 534 31,000  Level Kansas City Center
Fri 12:01:39 PM 39.7000 -91.6719 145° Southeast 464 534 31,000  Level Kansas City Center
Fri 12:02:40 PM 39.5742 -91.5575 145° Southeast 464 534 31,000  Level Kansas City Center
Fri 12:03:41 PM 39.4742 -91.4642 144° Southeast 463 533 31,000  Level Kansas City Center
Fri 12:04:44 PM 39.3706 -91.3697 145° Southeast 460 529 31,000  Level Kansas City Center
Fri 12:05:46 PM 39.2667 -91.2747 145° Southeast 459 528 31,000  Level Kansas City Center
Fri 12:06:47 PM 39.1628 -91.1794 145° Southeast 459 528 31,000  Level Kansas City Center
Fri 12:08:52 PM 38.9333 -90.9739 145° Southeast 459 528 31,000  Level Kansas City Center
Fri 12:09:51 PM 38.8294 -90.8817 145° Southeast 459 528 31,000  Level Kansas City Center
Fri 12:10:56 PM 38.7261 -90.7900 145° Southeast 459 528 31,000  Level Kansas City Center
Fri 12:11:57 PM 38.6214 -90.6975 145° Southeast 459 528 31,000  Level Kansas City Center
Fri 12:12:58 PM 38.5211 -90.6078 145° Southeast 455 524 31,000  Level Kansas City Center
Fri 12:13:58 PM 38.3978 -90.4986 145° Southeast 455 524 31,000  Level Kansas City Center
Fri 12:15:01 PM 38.2897 -90.4047 146° Southeast 465 535 31,000  Level Kansas City Center
Fri 12:16:02 PM 38.1861 -90.3139 145° Southeast 461 531 31,000  Level Kansas City Center
Fri 12:17:05 PM 38.0828 -90.2233 145° Southeast 456 525 31,000  Level Kansas City Center
Fri 12:18:04 PM 37.9781 -90.1314 145° Southeast 456 525 31,000  Level Kansas City Center
Fri 12:19:06 PM 37.8608 -90.0314 146° Southeast 456 525 31,000  Level Kansas City Center
Fri 12:20:07 PM 37.7694 -89.9536 146° Southeast 455 524 31,000  Level Kansas City Center
Fri 12:21:10 PM 37.6431 -89.8442 146° Southeast 457 526 31,000  Level Kansas City Center
Fri 12:22:11 PM 37.5319 -89.7478 145° Southeast 461 531 31,000  Level Kansas City Center
Fri 12:23:14 PM 37.4281 -89.6592 146° Southeast 457 526 31,000  Level Kansas City Center
Fri 12:23:46 PM 37.3656 -89.6061 146° Southeast 458 527 31,000  Level Memphis Center
Fri 12:24:47 PM 37.2589 -89.5158 146° Southeast 458 527 31,000  Level Memphis Center
Fri 12:25:49 PM 37.1533 -89.4264 146° Southeast 458 527 31,000  Level Memphis Center
Fri 12:26:50 PM 37.0472 -89.3350 145° Southeast 458 527 31,000  Level Memphis Center
Fri 12:27:52 PM 36.9408 -89.2456 146° Southeast 458 527 31,000  Level Memphis Center
Fri 12:28:54 PM 36.8336 -89.1561 146° Southeast 458 527 31,000  Level Memphis Center
Fri 12:29:55 PM 36.7267 -89.0667 146° Southeast 459 528 31,000  Level Memphis Center
Fri 12:30:57 PM 36.6189 -88.9778 146° Southeast 459 528 31,000  Level Memphis Center
Fri 12:31:58 PM 36.5106 -88.8881 146° Southeast 459 528 31,000  Level Memphis Center
Fri 12:33:00 PM 36.4022 -88.7983 146° Southeast 459 528 31,000  Level Memphis Center
Fri 12:34:01 PM 36.2944 -88.7122 147° Southeast 460 529 31,000  Level Memphis Center
Fri 12:35:03 PM 36.1667 -88.6083 147° Southeast 459 528 31,000  Level Memphis Center
Fri 12:36:04 PM 36.0603 -88.5208 146° Southeast 459 528 31,000  Level Memphis Center
Fri 12:37:06 PM 35.9542 -88.4342 147° Southeast 458 527 31,000  Level Memphis Center
Fri 12:38:08 PM 35.8464 -88.3472 147° Southeast 458 527 31,000  Level Memphis Center
Fri 12:39:09 PM 35.7394 -88.2603 147° Southeast 458 527 31,000  Level Memphis Center
Fri 12:40:10 PM 35.6339 -88.1744 147° Southeast 458 527 31,000  Level Memphis Center
Fri 12:41:12 PM 35.5236 -88.0892 148° Southeast 457 526 31,000  Level Memphis Center
Fri 12:42:13 PM 35.4156 -88.0031 147° Southeast 457 526 31,000  Level Memphis Center
Fri 12:43:15 PM 35.2956 -87.9086 147° Southeast 458 527 31,000  Level Memphis Center
Fri 12:44:16 PM 35.1889 -87.8217 146° Southeast 460 529 31,000  Level Memphis Center
Fri 12:45:18 PM 35.0825 -87.7353 146° Southeast 459 528 31,000  Level Memphis Center
Fri 12:46:19 PM 34.9758 -87.6508 147° Southeast 459 528 31,000  Level Memphis Center
Fri 12:47:21 PM 34.8689 -87.5667 147° Southeast 459 528 31,000  Level Memphis Center
Fri 12:48:22 PM 34.7631 -87.4822 147° Southeast 458 527 31,000  Level Memphis Center
Fri 12:49:23 PM 34.6569 -87.3992 147° Southeast 454 522 31,000  Level Memphis Center
Fri 12:50:25 PM 34.5472 -87.3125 147° Southeast 453 521 31,000  Level Memphis Center
Fri 12:51:26 PM 34.4417 -87.2308 147° Southeast 453 521 31,000  Level Memphis Center
Fri 12:52:28 PM 34.3361 -87.1497 148° Southeast 453 521 31,000  Level Memphis Center
Fri 12:53:29 PM 34.2297 -87.0683 148° Southeast 453 521 31,000  Level Memphis Center
Fri 12:54:31 PM 34.1028 -86.9708 148° Southeast 453 521 31,000  Level Memphis Center
Fri 12:55:32 PM 33.9972 -86.8892 147° Southeast 452 520 31,000  Level Memphis Center
Fri 12:56:34 PM 33.8919 -86.8078 147° Southeast 452 520 31,000  Level Memphis Center
Fri 12:57:35 PM 33.7867 -86.7281 148° Southeast 451 519 31,000  Level Memphis Center
Fri 12:58:37 PM 33.6825 -86.6489 148° Southeast 448 516 31,000  Level Memphis Center
Fri 12:59:53 PM 33.5494 -86.5489 148° Southeast 450 518 31,000  Level Atlanta Center
Fri 01:00:53 PM 33.4425 -86.4686 148° Southeast 450 518 31,000  Level Atlanta Center
Fri 01:01:53 PM 33.3397 -86.3886 147° Southeast 450 518 31,000  Level Atlanta Center
Fri 01:02:53 PM 33.2328 -86.3061 147° Southeast 450 518 31,000  Level Atlanta Center
Fri 01:03:53 PM 33.1278 -86.2267 148° Southeast 450 518 31,000  Level Atlanta Center
Fri 01:04:53 PM 33.0225 -86.1522 149° Southeast 450 518 31,000  Level Atlanta Center
Fri 01:05:53 PM 32.9197 -86.0706 146° Southeast 444 511 31,000 200 Level Atlanta Center
Fri 01:06:53 PM 32.8122 -85.9939 149° Southeast 453 521 31,400 800 Climbing Atlanta Center
Fri 01:07:53 PM 32.7072 -85.9125 147° Southeast 453 521 32,600 800 Climbing Atlanta Center
Fri 01:08:53 PM 32.6039 -85.8364 148° Southeast 446 513 33,000 200 Climbing Atlanta Center
Fri 01:09:53 PM 32.4986 -85.7603 149° Southeast 446 513 33,000  Level Atlanta Center
Fri 01:10:53 PM 32.3931 -85.6819 148° Southeast 446 513 33,000  Level Atlanta Center
Fri 01:11:53 PM 32.2878 -85.6064 149° Southeast 446 513 33,000  Level Atlanta Center
Fri 01:12:53 PM 32.1844 -85.5286 147° Southeast 446 513 33,000  Level Atlanta Center
Fri 01:14:40 PM 31.9936 -85.3936 149° Southeast 443 510 33,000  Level Jacksonville Center
Fri 01:15:40 PM 31.8783 -85.3122 149° Southeast 438 504 33,000  Level Jacksonville Center
Fri 01:16:39 PM 31.7733 -85.2361 148° Southeast 443 510 33,000  Level Jacksonville Center
Fri 01:17:39 PM 31.6661 -85.1603 149° Southeast 443 510 33,000  Level Jacksonville Center
Fri 01:18:39 PM 31.5711 -85.0944 149° Southeast 443 510 33,000  Level Jacksonville Center
Fri 01:19:39 PM 31.4661 -85.0189 148° Southeast 443 510 33,000  Level Jacksonville Center
Fri 01:20:39 PM 31.3628 -84.9436 148° Southeast 443 510 33,000  Level Jacksonville Center
Fri 01:21:39 PM 31.2575 -84.8661 148° Southeast 438 504 33,000  Level Jacksonville Center
Fri 01:22:39 PM 31.1522 -84.7908 149° Southeast 438 504 33,000  Level Jacksonville Center
Fri 01:23:39 PM 31.0469 -84.7161 149° Southeast 444 511 33,000  Level Jacksonville Center
Fri 01:24:39 PM 30.9394 -84.6414 149° Southeast 439 505 33,000  Level Jacksonville Center
Fri 01:25:39 PM 30.8339 -84.5667 149° Southeast 439 505 33,000  Level Jacksonville Center
Fri 01:26:39 PM 30.7264 -84.4900 148° Southeast 444 511 33,000  Level Jacksonville Center
Fri 01:27:40 PM 30.6042 -84.4083 150° Southeast 450 518 33,000 -50 Level Jacksonville Center
Fri 01:28:40 PM 30.5006 -84.3319 148° Southeast 450 518 32,900 -50 Descending Jacksonville Center
Fri 01:29:40 PM 30.3906 -84.2628 152° Southeast 445 512 32,900  Level Jacksonville Center
Fri 01:30:40 PM 30.2850 -84.1939 151° Southeast 445 512 32,900  Level Jacksonville Center
Fri 01:31:39 PM 30.1792 -84.1253 151° Southeast 445 512 32,900 50 Level Jacksonville Center
Fri 01:32:39 PM 30.0692 -84.0542 151° Southeast 445 512 33,000  Climbing Jacksonville Center
Fri 01:33:40 PM 29.9611 -83.9833 150° Southeast 445 512 32,900 -50 Descending Jacksonville Center
Fri 01:34:39 PM 29.8511 -83.9128 151° Southeast 445 512 32,900  Level Jacksonville Center
Fri 01:35:39 PM 29.7431 -83.8447 151° Southeast 445 512 32,900 -300 Level Jacksonville Center
Fri 01:36:39 PM 29.6350 -83.7742 150° Southeast 445 512 32,300 -950 Descending Jacksonville Center
Fri 01:37:39 PM 29.5353 -83.7089 150° Southeast 450 518 31,000 -1,350 Descending Jacksonville Center
Fri 01:38:39 PM 29.4231 -83.6389 151° Southeast 450 518 29,600 -1,450 Descending Jacksonville Center
Fri 01:39:39 PM 29.3106 -83.5642 150° Southeast 456 525 28,100 -1,500 Descending Jacksonville Center
Fri 01:40:39 PM 29.2003 -83.4969 152° Southeast 456 525 26,600 -1,500 Descending Jacksonville Center
Fri 01:41:39 PM 29.0900 -83.4250 150° Southeast 456 525 25,100 -1,500 Descending Jacksonville Center
Fri 01:42:39 PM 28.9858 -83.3578 151° Southeast 451 519 23,600 -1,550 Descending Jacksonville Center
Fri 01:43:39 PM 28.8778 -83.2908 152° Southeast 446 513 22,000 -2,179 Descending Jacksonville Center
Fri 01:45:27 PM 28.6833 -83.1667 151° Southeast 407 468 17,500 -2,429 Descending Tampa TRACON
Fri 01:46:27 PM 28.6000 -83.1000 145° Southeast 395 455 15,200 -2,250 Descending Tampa TRACON
Fri 01:47:27 PM 28.5000 -83.0333 150° Southeast 380 437 13,000 -2,100 Descending Tampa TRACON
Fri 01:48:27 PM 28.4167 -82.9833 152° Southeast 365 420 11,000 -1,429 Descending Tampa TRACON
Fri 01:49:33 PM 28.3333 -82.9167 145° Southeast 327 376 10,000 -1,182 Descending Tampa TRACON
Fri 01:50:39 PM 28.2500 -82.8500 145° Southeast 284 327 8,400 -1,667 Descending Tampa TRACON
Fri 01:51:39 PM 28.2000 -82.8167 150° Southeast 278 320 6,500 -2,150 Descending Tampa TRACON
Fri 01:52:39 PM 28.1333 -82.7667 147° Southeast 268 308 4,100 -2,350 Descending Tampa TRACON
Fri 01:53:39 PM 28.0667 -82.7167 146° Southeast 261 300 1,800 -1,250 Descending Tampa TRACON
Fri 01:54:39 PM 28.0167 -82.6833 150° Southeast 213 245 1,600 -333 Descending Tampa TRACON
Fri 01:55:45 PM 27.9833 -82.6833 180° South 132 152 1,100 -571 Descending Tampa TRACON
Fri 01:56:45 PM 27.9333 -82.7000 196° South 134 154 400 -700 Descending Tampa TRACON

Login

Don't have an account? Register now (free) for customized features, flight alerts, and more!